sensor_id;sensor_type;location;lat;lon;timestamp;pressure;altitude;pressure_sealevel;temperature;humidity
61757;BME280;57225;61.460;24.060;2023-04-04T00:00:33;101468.13;;;-8.64;85.70
61757;BME280;57225;61.460;24.060;2023-04-04T00:03:18;101459.19;;;-8.81;86.51
61757;BME280;57225;61.460;24.060;2023-04-04T00:06:02;101465.88;;;-8.83;87.08
61757;BME280;57225;61.460;24.060;2023-04-04T00:08:47;101459.34;;;-8.71;85.69
61757;BME280;57225;61.460;24.060;2023-04-04T00:11:31;101457.81;;;-8.67;85.92
61757;BME280;57225;61.460;24.060;2023-04-04T00:14:16;101463.03;;;-8.77;85.79
61757;BME280;57225;61.460;24.060;2023-04-04T00:17:01;101459.25;;;-8.76;87.11
61757;BME280;57225;61.460;24.060;2023-04-04T00:19:45;101465.06;;;-8.84;88.76
61757;BME280;57225;61.460;24.060;2023-04-04T00:22:30;101452.59;;;-8.85;88.82
61757;BME280;57225;61.460;24.060;2023-04-04T00:25:14;101457.09;;;-8.90;88.18
61757;BME280;57225;61.460;24.060;2023-04-04T00:27:58;101456.69;;;-8.99;88.85
61757;BME280;57225;61.460;24.060;2023-04-04T00:30:43;101463.03;;;-9.05;89.00
61757;BME280;57225;61.460;24.060;2023-04-04T00:33:27;101453.66;;;-9.14;87.96
61757;BME280;57225;61.460;24.060;2023-04-04T00:36:12;101451.94;;;-9.20;90.12
61757;BME280;57225;61.460;24.060;2023-04-04T00:38:56;101450.19;;;-9.26;90.58
61757;BME280;57225;61.460;24.060;2023-04-04T00:41:42;101461.94;;;-9.32;89.65
61757;BME280;57225;61.460;24.060;2023-04-04T00:44:26;101467.81;;;-9.36;90.34
61757;BME280;57225;61.460;24.060;2023-04-04T00:47:11;101465.09;;;-9.36;89.03
61757;BME280;57225;61.460;24.060;2023-04-04T00:49:55;101462.91;;;-9.39;88.43
61757;BME280;57225;61.460;24.060;2023-04-04T00:52:40;101462.69;;;-9.49;87.43
61757;BME280;57225;61.460;24.060;2023-04-04T00:55:25;101452.72;;;-9.60;87.41
61757;BME280;57225;61.460;24.060;2023-04-04T00:58:10;101452.63;;;-9.65;87.12
61757;BME280;57225;61.460;24.060;2023-04-04T01:00:55;101442.44;;;-9.74;89.00
61757;BME280;57225;61.460;24.060;2023-04-04T01:03:39;101458.97;;;-9.71;87.93
61757;BME280;57225;61.460;24.060;2023-04-04T01:06:24;101454.38;;;-9.70;88.59
61757;BME280;57225;61.460;24.060;2023-04-04T01:09:11;101455.22;;;-9.70;89.14
61757;BME280;57225;61.460;24.060;2023-04-04T01:11:56;101454.38;;;-9.70;88.49
61757;BME280;57225;61.460;24.060;2023-04-04T01:14:42;101449.72;;;-9.75;88.75
61757;BME280;57225;61.460;24.060;2023-04-04T01:17:27;101456.16;;;-9.76;89.24
61757;BME280;57225;61.460;24.060;2023-04-04T01:20:14;101455.00;;;-9.80;88.50
61757;BME280;57225;61.460;24.060;2023-04-04T01:23:04;101453.00;;;-9.85;88.51
61757;BME280;57225;61.460;24.060;2023-04-04T01:25:49;101458.50;;;-9.91;90.00
61757;BME280;57225;61.460;24.060;2023-04-04T01:28:42;101447.72;;;-9.91;90.13
61757;BME280;57225;61.460;24.060;2023-04-04T01:31:33;101451.47;;;-9.92;89.98
61757;BME280;57225;61.460;24.060;2023-04-04T01:34:31;101450.53;;;-9.98;90.14
61757;BME280;57225;61.460;24.060;2023-04-04T01:37:29;101453.00;;;-9.96;91.00
61757;BME280;57225;61.460;24.060;2023-04-04T01:40:27;101445.63;;;-10.01;91.09
61757;BME280;57225;61.460;24.060;2023-04-04T01:43:18;101444.19;;;-10.03;91.40
61757;BME280;57225;61.460;24.060;2023-04-04T01:46:02;101442.56;;;-10.04;90.43
61757;BME280;57225;61.460;24.060;2023-04-04T01:48:47;101443.88;;;-10.07;90.90
61757;BME280;57225;61.460;24.060;2023-04-04T01:51:32;101438.69;;;-10.08;91.16
61757;BME280;57225;61.460;24.060;2023-04-04T01:54:16;101433.53;;;-10.10;91.04
61757;BME280;57225;61.460;24.060;2023-04-04T01:57:02;101430.84;;;-10.10;91.16
61757;BME280;57225;61.460;24.060;2023-04-04T01:59:46;101432.84;;;-10.05;90.86
61757;BME280;57225;61.460;24.060;2023-04-04T02:02:30;101428.63;;;-10.01;91.03
61757;BME280;57225;61.460;24.060;2023-04-04T02:05:15;101429.91;;;-10.04;90.57
61757;BME280;57225;61.460;24.060;2023-04-04T02:08:00;101427.69;;;-10.07;91.56
61757;BME280;57225;61.460;24.060;2023-04-04T02:10:46;101422.06;;;-9.94;91.98
61757;BME280;57225;61.460;24.060;2023-04-04T02:13:30;101422.50;;;-9.85;90.17
61757;BME280;57225;61.460;24.060;2023-04-04T02:16:14;101424.94;;;-9.72;90.86
61757;BME280;57225;61.460;24.060;2023-04-04T02:18:59;101424.09;;;-9.61;89.19
61757;BME280;57225;61.460;24.060;2023-04-04T02:21:43;101425.47;;;-9.47;87.83
61757;BME280;57225;61.460;24.060;2023-04-04T02:24:28;101425.13;;;-9.39;86.70
61757;BME280;57225;61.460;24.060;2023-04-04T02:27:33;101423.00;;;-9.37;86.22
61757;BME280;57225;61.460;24.060;2023-04-04T02:30:18;101419.34;;;-9.30;87.09
61757;BME280;57225;61.460;24.060;2023-04-04T02:33:03;101426.03;;;-9.33;86.41
61757;BME280;57225;61.460;24.060;2023-04-04T02:35:47;101416.38;;;-9.17;83.87
61757;BME280;57225;61.460;24.060;2023-04-04T02:38:31;101419.78;;;-9.22;85.78
61757;BME280;57225;61.460;24.060;2023-04-04T02:41:16;101417.88;;;-9.21;84.41
61757;BME280;57225;61.460;24.060;2023-04-04T02:44:01;101422.72;;;-9.23;85.67
61757;BME280;57225;61.460;24.060;2023-04-04T02:46:46;101416.88;;;-9.32;87.32
61757;BME280;57225;61.460;24.060;2023-04-04T02:49:31;101416.19;;;-9.39;87.29
61757;BME280;57225;61.460;24.060;2023-04-04T02:52:15;101414.69;;;-9.47;87.20
61757;BME280;57225;61.460;24.060;2023-04-04T02:55:00;101418.00;;;-9.56;87.20
61757;BME280;57225;61.460;24.060;2023-04-04T02:57:50;101419.66;;;-9.67;87.78
61757;BME280;57225;61.460;24.060;2023-04-04T03:00:35;101412.41;;;-9.78;87.58
61757;BME280;57225;61.460;24.060;2023-04-04T03:03:19;101407.50;;;-9.81;88.63
61757;BME280;57225;61.460;24.060;2023-04-04T03:06:04;101406.31;;;-9.85;88.56
61757;BME280;57225;61.460;24.060;2023-04-04T03:08:48;101413.72;;;-9.92;88.51
61757;BME280;57225;61.460;24.060;2023-04-04T03:11:32;101410.91;;;-9.97;89.23
61757;BME280;57225;61.460;24.060;2023-04-04T03:14:17;101409.50;;;-10.11;89.32
61757;BME280;57225;61.460;24.060;2023-04-04T03:17:01;101414.38;;;-10.25;89.36
61757;BME280;57225;61.460;24.060;2023-04-04T03:19:46;101410.25;;;-10.28;90.37
61757;BME280;57225;61.460;24.060;2023-04-04T03:22:31;101405.34;;;-10.31;90.56
61757;BME280;57225;61.460;24.060;2023-04-04T03:25:15;101398.75;;;-10.35;91.38
61757;BME280;57225;61.460;24.060;2023-04-04T03:28:09;101381.53;;;-10.45;91.11
61757;BME280;57225;61.460;24.060;2023-04-04T03:30:54;101384.47;;;-10.47;90.37
61757;BME280;57225;61.460;24.060;2023-04-04T03:33:39;101385.41;;;-10.53;90.91
61757;BME280;57225;61.460;24.060;2023-04-04T03:36:25;101392.31;;;-10.57;90.93
61757;BME280;57225;61.460;24.060;2023-04-04T03:39:11;101385.72;;;-10.61;91.09
61757;BME280;57225;61.460;24.060;2023-04-04T03:41:56;101402.81;;;-10.67;91.05
61757;BME280;57225;61.460;24.060;2023-04-04T03:44:41;101387.94;;;-10.81;91.17
61757;BME280;57225;61.460;24.060;2023-04-04T03:47:26;101395.91;;;-10.75;91.26
61757;BME280;57225;61.460;24.060;2023-04-04T03:50:10;101385.09;;;-10.86;91.50
61757;BME280;57225;61.460;24.060;2023-04-04T03:52:55;101381.13;;;-10.95;91.59
61757;BME280;57225;61.460;24.060;2023-04-04T03:55:41;101385.69;;;-10.84;92.10
61757;BME280;57225;61.460;24.060;2023-04-04T03:58:26;101390.03;;;-10.83;91.76
61757;BME280;57225;61.460;24.060;2023-04-04T04:01:11;101389.34;;;-10.79;92.23
61757;BME280;57225;61.460;24.060;2023-04-04T04:03:56;101384.91;;;-10.73;91.16
61757;BME280;57225;61.460;24.060;2023-04-04T04:06:40;101391.59;;;-10.76;91.10
61757;BME280;57225;61.460;24.060;2023-04-04T04:09:24;101389.84;;;-10.70;91.02
61757;BME280;57225;61.460;24.060;2023-04-04T04:12:09;101384.56;;;-10.65;91.17
61757;BME280;57225;61.460;24.060;2023-04-04T04:14:53;101389.50;;;-10.62;90.49
61757;BME280;57225;61.460;24.060;2023-04-04T04:17:39;101381.44;;;-10.62;90.89
61757;BME280;57225;61.460;24.060;2023-04-04T04:20:23;101384.25;;;-10.57;90.48
61757;BME280;57225;61.460;24.060;2023-04-04T04:23:08;101385.78;;;-10.49;90.89
61757;BME280;57225;61.460;24.060;2023-04-04T04:25:52;101391.25;;;-10.56;90.72
61757;BME280;57225;61.460;24.060;2023-04-04T04:28:37;101383.41;;;-10.46;91.65
61757;BME280;57225;61.460;24.060;2023-04-04T04:31:21;101387.53;;;-10.32;90.24
61757;BME280;57225;61.460;24.060;2023-04-04T04:34:05;101375.22;;;-10.28;89.66
61757;BME280;57225;61.460;24.060;2023-04-04T04:36:51;101389.59;;;-10.10;88.20
61757;BME280;57225;61.460;24.060;2023-04-04T04:39:36;101374.09;;;-10.03;89.24
61757;BME280;57225;61.460;24.060;2023-04-04T04:42:21;101379.94;;;-9.83;87.21
61757;BME280;57225;61.460;24.060;2023-04-04T04:45:06;101380.97;;;-9.72;86.41
61757;BME280;57225;61.460;24.060;2023-04-04T04:47:50;101370.50;;;-9.57;86.23
61757;BME280;57225;61.460;24.060;2023-04-04T04:50:35;101383.34;;;-9.36;85.24
61757;BME280;57225;61.460;24.060;2023-04-04T04:53:19;101384.75;;;-8.72;83.21
61757;BME280;57225;61.460;24.060;2023-04-04T04:56:04;101383.81;;;-7.50;77.42
61757;BME280;57225;61.460;24.060;2023-04-04T04:58:49;101384.31;;;-6.46;71.22
61757;BME280;57225;61.460;24.060;2023-04-04T05:01:34;101387.28;;;-5.63;69.31
61757;BME280;57225;61.460;24.060;2023-04-04T05:04:18;101377.09;;;-5.26;68.97
61757;BME280;57225;61.460;24.060;2023-04-04T05:07:03;101373.06;;;-5.03;67.67
61757;BME280;57225;61.460;24.060;2023-04-04T05:09:49;101372.03;;;-4.41;64.19
61757;BME280;57225;61.460;24.060;2023-04-04T05:12:34;101360.63;;;-4.59;62.40
61757;BME280;57225;61.460;24.060;2023-04-04T05:15:18;101345.94;;;-4.58;61.61
61757;BME280;57225;61.460;24.060;2023-04-04T05:18:05;101365.50;;;-4.25;59.99
61757;BME280;57225;61.460;24.060;2023-04-04T05:20:51;101371.50;;;-4.18;59.55
61757;BME280;57225;61.460;24.060;2023-04-04T05:23:37;101363.31;;;-4.23;59.96
61757;BME280;57225;61.460;24.060;2023-04-04T05:26:21;101368.75;;;-4.13;59.50
61757;BME280;57225;61.460;24.060;2023-04-04T05:29:06;101362.00;;;-3.46;57.80
61757;BME280;57225;61.460;24.060;2023-04-04T05:31:50;101367.94;;;-3.34;55.69
61757;BME280;57225;61.460;24.060;2023-04-04T05:34:35;101368.19;;;-3.26;56.97
61757;BME280;57225;61.460;24.060;2023-04-04T05:37:19;101370.84;;;-3.10;55.83
61757;BME280;57225;61.460;24.060;2023-04-04T05:40:05;101367.59;;;-3.12;54.43
61757;BME280;57225;61.460;24.060;2023-04-04T05:42:56;101359.16;;;-3.21;55.25
61757;BME280;57225;61.460;24.060;2023-04-04T05:45:41;101362.91;;;-3.07;55.32
61757;BME280;57225;61.460;24.060;2023-04-04T05:48:25;101373.28;;;-3.04;53.97
61757;BME280;57225;61.460;24.060;2023-04-04T05:51:09;101374.25;;;-2.85;53.87
61757;BME280;57225;61.460;24.060;2023-04-04T05:53:54;101368.16;;;-2.76;54.67
61757;BME280;57225;61.460;24.060;2023-04-04T05:56:39;101361.53;;;-2.31;53.57
61757;BME280;57225;61.460;24.060;2023-04-04T05:59:23;101360.81;;;-2.42;54.15
61757;BME280;57225;61.460;24.060;2023-04-04T06:02:08;101368.53;;;-2.49;53.15
61757;BME280;57225;61.460;24.060;2023-04-04T06:04:52;101364.97;;;-2.50;53.76
61757;BME280;57225;61.460;24.060;2023-04-04T06:07:37;101369.69;;;-2.60;53.47
61757;BME280;57225;61.460;24.060;2023-04-04T06:10:22;101362.44;;;-3.19;54.42
61757;BME280;57225;61.460;24.060;2023-04-04T06:13:06;101368.13;;;-3.15;56.14
61757;BME280;57225;61.460;24.060;2023-04-04T06:15:50;101365.50;;;-3.31;55.80
61757;BME280;57225;61.460;24.060;2023-04-04T06:18:35;101360.09;;;-3.46;55.58
61757;BME280;57225;61.460;24.060;2023-04-04T06:21:19;101366.91;;;-3.38;54.53
61757;BME280;57225;61.460;24.060;2023-04-04T06:24:03;101359.72;;;-3.19;55.33
61757;BME280;57225;61.460;24.060;2023-04-04T06:26:48;101360.66;;;-2.95;54.49
61757;BME280;57225;61.460;24.060;2023-04-04T06:29:34;101357.19;;;-2.66;54.38
61757;BME280;57225;61.460;24.060;2023-04-04T06:32:19;101358.28;;;-2.67;54.20
61757;BME280;57225;61.460;24.060;2023-04-04T06:35:05;101361.97;;;-2.48;54.18
61757;BME280;57225;61.460;24.060;2023-04-04T06:56:23;101354.75;;;-1.15;50.21
61757;BME280;57225;61.460;24.060;2023-04-04T06:59:07;101351.34;;;-0.88;49.27
61757;BME280;57225;61.460;24.060;2023-04-04T07:01:56;101353.50;;;-1.04;48.33
61757;BME280;57225;61.460;24.060;2023-04-04T07:04:40;101338.84;;;-0.75;48.70
61757;BME280;57225;61.460;24.060;2023-04-04T07:07:25;101347.38;;;-0.77;48.18
61757;BME280;57225;61.460;24.060;2023-04-04T07:10:10;101349.78;;;-0.75;47.77
61757;BME280;57225;61.460;24.060;2023-04-04T07:12:54;101334.53;;;-0.63;47.71
61757;BME280;57225;61.460;24.060;2023-04-04T07:15:39;101335.50;;;-0.54;48.83
61757;BME280;57225;61.460;24.060;2023-04-04T07:18:23;101340.59;;;-0.15;46.13
61757;BME280;57225;61.460;24.060;2023-04-04T07:21:08;101339.41;;;0.05;47.88
61757;BME280;57225;61.460;24.060;2023-04-04T07:23:52;101340.53;;;0.18;46.42
61757;BME280;57225;61.460;24.060;2023-04-04T07:26:36;101341.03;;;0.47;45.18
61757;BME280;57225;61.460;24.060;2023-04-04T07:29:21;101337.72;;;1.00;45.77
61757;BME280;57225;61.460;24.060;2023-04-04T07:32:06;101343.22;;;1.22;43.04
61757;BME280;57225;61.460;24.060;2023-04-04T07:34:51;101339.56;;;2.33;42.90
61757;BME280;57225;61.460;24.060;2023-04-04T07:37:35;101334.47;;;1.65;41.91
61757;BME280;57225;61.460;24.060;2023-04-04T07:40:21;101334.00;;;1.40;43.03
61757;BME280;57225;61.460;24.060;2023-04-04T07:43:05;101329.63;;;1.39;43.86
61757;BME280;57225;61.460;24.060;2023-04-04T07:45:50;101332.94;;;1.50;41.66
61757;BME280;57225;61.460;24.060;2023-04-04T07:48:34;101342.44;;;1.44;42.24
61757;BME280;57225;61.460;24.060;2023-04-04T07:51:19;101337.56;;;1.63;42.16
61757;BME280;57225;61.460;24.060;2023-04-04T07:54:12;101347.41;;;1.86;42.95
61757;BME280;57225;61.460;24.060;2023-04-04T07:56:56;101330.44;;;1.17;44.45
61757;BME280;57225;61.460;24.060;2023-04-04T07:59:41;101337.84;;;0.81;45.45
61757;BME280;57225;61.460;24.060;2023-04-04T08:02:26;101341.34;;;0.46;44.07
61757;BME280;57225;61.460;24.060;2023-04-04T08:05:10;101335.09;;;0.81;46.01
61757;BME280;57225;61.460;24.060;2023-04-04T08:07:54;101332.78;;;0.74;44.51
61757;BME280;57225;61.460;24.060;2023-04-04T08:10:39;101333.63;;;1.33;43.13
61757;BME280;57225;61.460;24.060;2023-04-04T08:13:23;101338.41;;;1.05;43.59
61757;BME280;57225;61.460;24.060;2023-04-04T08:16:08;101333.28;;;1.79;43.38
61757;BME280;57225;61.460;24.060;2023-04-04T08:18:53;101332.25;;;1.22;42.72
61757;BME280;57225;61.460;24.060;2023-04-04T08:21:37;101341.25;;;1.36;44.02
61757;BME280;57225;61.460;24.060;2023-04-04T08:24:22;101342.31;;;1.49;45.90
61757;BME280;57225;61.460;24.060;2023-04-04T08:27:32;101348.34;;;1.59;41.92
61757;BME280;57225;61.460;24.060;2023-04-04T08:30:16;101347.00;;;1.26;42.83
61757;BME280;57225;61.460;24.060;2023-04-04T08:33:01;101339.88;;;1.47;42.71
61757;BME280;57225;61.460;24.060;2023-04-04T08:35:46;101341.75;;;0.53;43.66
61757;BME280;57225;61.460;24.060;2023-04-04T08:38:30;101343.34;;;0.81;45.88
61757;BME280;57225;61.460;24.060;2023-04-04T08:41:15;101347.78;;;1.27;44.40
61757;BME280;57225;61.460;24.060;2023-04-04T08:44:01;101342.38;;;0.99;43.91
61757;BME280;57225;61.460;24.060;2023-04-04T08:46:48;101345.56;;;1.51;44.89
61757;BME280;57225;61.460;24.060;2023-04-04T08:49:37;101334.31;;;0.67;44.97
61757;BME280;57225;61.460;24.060;2023-04-04T08:52:22;101334.94;;;1.58;44.62
61757;BME280;57225;61.460;24.060;2023-04-04T08:55:08;101334.50;;;1.42;44.38
61757;BME280;57225;61.460;24.060;2023-04-04T08:57:53;101329.91;;;0.93;43.41
61757;BME280;57225;61.460;24.060;2023-04-04T09:00:38;101314.41;;;0.48;44.98
61757;BME280;57225;61.460;24.060;2023-04-04T09:03:26;101341.44;;;1.04;43.04
61757;BME280;57225;61.460;24.060;2023-04-04T09:06:14;101332.72;;;1.91;44.06
61757;BME280;57225;61.460;24.060;2023-04-04T09:08:59;101327.84;;;2.19;41.49
61757;BME280;57225;61.460;24.060;2023-04-04T09:11:45;101327.00;;;2.66;40.60
61757;BME280;57225;61.460;24.060;2023-04-04T09:14:32;101330.19;;;2.34;41.27
61757;BME280;57225;61.460;24.060;2023-04-04T09:17:20;101326.00;;;2.45;42.40
61757;BME280;57225;61.460;24.060;2023-04-04T09:20:33;101322.94;;;2.55;42.95
61757;BME280;57225;61.460;24.060;2023-04-04T09:23:19;101322.31;;;2.58;41.02
61757;BME280;57225;61.460;24.060;2023-04-04T09:26:04;101331.44;;;1.97;40.11
61757;BME280;57225;61.460;24.060;2023-04-04T09:28:53;101320.81;;;1.73;40.99
61757;BME280;57225;61.460;24.060;2023-04-04T09:31:37;101315.41;;;2.21;42.40
61757;BME280;57225;61.460;24.060;2023-04-04T09:34:22;101312.53;;;1.95;40.62
61757;BME280;57225;61.460;24.060;2023-04-04T09:37:06;101312.97;;;2.20;41.08
61757;BME280;57225;61.460;24.060;2023-04-04T09:39:51;101321.78;;;2.39;39.80
61757;BME280;57225;61.460;24.060;2023-04-04T09:42:35;101310.03;;;1.85;41.00
61757;BME280;57225;61.460;24.060;2023-04-04T09:45:22;101303.78;;;2.33;42.04
61757;BME280;57225;61.460;24.060;2023-04-04T09:48:09;101298.56;;;3.31;40.42
61757;BME280;57225;61.460;24.060;2023-04-04T09:50:55;101300.75;;;2.43;39.66
61757;BME280;57225;61.460;24.060;2023-04-04T09:53:46;101300.66;;;2.82;42.67
61757;BME280;57225;61.460;24.060;2023-04-04T09:56:32;101291.41;;;2.78;40.74
61757;BME280;57225;61.460;24.060;2023-04-04T09:59:17;101301.13;;;2.67;40.06
61757;BME280;57225;61.460;24.060;2023-04-04T10:02:02;101290.94;;;2.85;44.31
61757;BME280;57225;61.460;24.060;2023-04-04T10:04:46;101284.66;;;3.02;40.53
61757;BME280;57225;61.460;24.060;2023-04-04T10:07:31;101282.59;;;2.42;40.89
61757;BME280;57225;61.460;24.060;2023-04-04T10:10:16;101287.41;;;2.28;41.26
61757;BME280;57225;61.460;24.060;2023-04-04T10:13:01;101286.66;;;2.45;39.91
61757;BME280;57225;61.460;24.060;2023-04-04T10:15:47;101279.44;;;2.92;39.59
61757;BME280;57225;61.460;24.060;2023-04-04T10:18:33;101278.56;;;2.39;40.82
61757;BME280;57225;61.460;24.060;2023-04-04T10:21:18;101275.19;;;2.60;40.54
61757;BME280;57225;61.460;24.060;2023-04-04T10:24:03;101281.72;;;3.24;41.02
61757;BME280;57225;61.460;24.060;2023-04-04T10:26:52;101279.94;;;3.19;38.90
61757;BME280;57225;61.460;24.060;2023-04-04T10:29:38;101264.06;;;3.08;40.23
61757;BME280;57225;61.460;24.060;2023-04-04T10:35:31;101258.91;;;3.79;38.71
61757;BME280;57225;61.460;24.060;2023-04-04T10:38:20;101274.41;;;3.54;38.19
61757;BME280;57225;61.460;24.060;2023-04-04T10:41:07;101278.75;;;2.52;37.68
61757;BME280;57225;61.460;24.060;2023-04-04T10:43:55;101277.59;;;2.44;41.79
61757;BME280;57225;61.460;24.060;2023-04-04T10:46:45;101269.38;;;3.30;39.92
61757;BME280;57225;61.460;24.060;2023-04-04T10:49:30;101265.84;;;3.04;38.05
61757;BME280;57225;61.460;24.060;2023-04-04T10:52:19;101268.75;;;2.81;37.74
61757;BME280;57225;61.460;24.060;2023-04-04T10:55:09;101257.41;;;3.26;37.33
61757;BME280;57225;61.460;24.060;2023-04-04T10:57:54;101261.13;;;3.04;38.24
61757;BME280;57225;61.460;24.060;2023-04-04T11:00:54;101268.13;;;3.02;36.54
61757;BME280;57225;61.460;24.060;2023-04-04T11:07:14;101249.00;;;3.14;37.13
61757;BME280;57225;61.460;24.060;2023-04-04T11:10:00;101250.56;;;3.49;36.98
61757;BME280;57225;61.460;24.060;2023-04-04T11:12:44;101248.56;;;4.05;38.45
61757;BME280;57225;61.460;24.060;2023-04-04T11:15:44;101244.22;;;3.57;39.07
61757;BME280;57225;61.460;24.060;2023-04-04T11:21:17;101241.19;;;4.26;35.65
61757;BME280;57225;61.460;24.060;2023-04-04T11:26:48;101244.75;;;4.27;35.79
61757;BME280;57225;61.460;24.060;2023-04-04T11:29:49;101230.97;;;3.89;36.57
61757;BME280;57225;61.460;24.060;2023-04-04T11:32:42;101234.41;;;4.15;36.33
61757;BME280;57225;61.460;24.060;2023-04-04T11:35:27;101223.69;;;4.43;36.63
61757;BME280;57225;61.460;24.060;2023-04-04T11:38:14;101218.06;;;4.10;35.53
61757;BME280;57225;61.460;24.060;2023-04-04T11:40:59;101229.22;;;3.84;35.92
61757;BME280;57225;61.460;24.060;2023-04-04T11:43:44;101225.03;;;3.70;34.10
61757;BME280;57225;61.460;24.060;2023-04-04T11:46:29;101224.81;;;3.92;36.35
61757;BME280;57225;61.460;24.060;2023-04-04T11:49:14;101222.88;;;3.84;35.87
61757;BME280;57225;61.460;24.060;2023-04-04T11:52:03;101218.38;;;4.09;35.12
61757;BME280;57225;61.460;24.060;2023-04-04T11:54:48;101227.94;;;4.11;34.05
61757;BME280;57225;61.460;24.060;2023-04-04T11:57:40;101223.47;;;3.98;34.79
61757;BME280;57225;61.460;24.060;2023-04-04T12:00:32;101220.41;;;4.50;35.41
61757;BME280;57225;61.460;24.060;2023-04-04T12:03:20;101218.56;;;4.33;35.88
61757;BME280;57225;61.460;24.060;2023-04-04T12:06:06;101218.75;;;3.98;34.64
61757;BME280;57225;61.460;24.060;2023-04-04T12:08:51;101211.81;;;4.22;36.97
61757;BME280;57225;61.460;24.060;2023-04-04T12:11:36;101211.66;;;4.48;37.54
61757;BME280;57225;61.460;24.060;2023-04-04T12:14:22;101186.53;;;4.40;34.68
61757;BME280;57225;61.460;24.060;2023-04-04T12:17:07;101201.69;;;4.05;35.16
61757;BME280;57225;61.460;24.060;2023-04-04T12:19:51;101211.06;;;3.75;36.82
61757;BME280;57225;61.460;24.060;2023-04-04T12:22:36;101204.59;;;4.59;40.64
61757;BME280;57225;61.460;24.060;2023-04-04T12:25:22;101193.28;;;4.93;34.83
61757;BME280;57225;61.460;24.060;2023-04-04T12:28:11;101200.00;;;6.07;34.23
61757;BME280;57225;61.460;24.060;2023-04-04T12:30:56;101198.56;;;5.31;34.06
61757;BME280;57225;61.460;24.060;2023-04-04T12:33:40;101205.66;;;5.53;34.03
61757;BME280;57225;61.460;24.060;2023-04-04T12:36:26;101193.69;;;5.49;33.37
61757;BME280;57225;61.460;24.060;2023-04-04T12:39:14;101184.66;;;5.40;33.06
61757;BME280;57225;61.460;24.060;2023-04-04T12:42:02;101197.84;;;4.68;33.94
61757;BME280;57225;61.460;24.060;2023-04-04T12:44:49;101190.03;;;4.50;35.75
61757;BME280;57225;61.460;24.060;2023-04-04T12:47:36;101188.16;;;4.41;36.12
61757;BME280;57225;61.460;24.060;2023-04-04T12:50:26;101186.66;;;3.94;34.45
61757;BME280;57225;61.460;24.060;2023-04-04T12:53:11;101183.25;;;3.97;37.22
61757;BME280;57225;61.460;24.060;2023-04-04T12:56:00;101181.69;;;4.37;34.63
61757;BME280;57225;61.460;24.060;2023-04-04T12:58:46;101179.75;;;4.79;33.46
61757;BME280;57225;61.460;24.060;2023-04-04T13:01:36;101183.53;;;5.08;33.30
61757;BME280;57225;61.460;24.060;2023-04-04T13:04:21;101179.03;;;5.03;36.40
61757;BME280;57225;61.460;24.060;2023-04-04T13:07:30;101183.81;;;5.72;35.03
61757;BME280;57225;61.460;24.060;2023-04-04T13:10:17;101178.50;;;5.79;32.18
61757;BME280;57225;61.460;24.060;2023-04-04T13:13:03;101171.41;;;5.00;33.50
61757;BME280;57225;61.460;24.060;2023-04-04T13:15:50;101182.78;;;4.87;33.43
61757;BME280;57225;61.460;24.060;2023-04-04T13:18:40;101187.09;;;4.55;32.94
61757;BME280;57225;61.460;24.060;2023-04-04T13:21:26;101175.56;;;4.53;34.50
61757;BME280;57225;61.460;24.060;2023-04-04T13:24:10;101170.09;;;4.44;34.71
61757;BME280;57225;61.460;24.060;2023-04-04T13:26:55;101170.53;;;5.08;34.37
61757;BME280;57225;61.460;24.060;2023-04-04T13:29:40;101165.91;;;5.12;32.44
61757;BME280;57225;61.460;24.060;2023-04-04T13:32:24;101162.44;;;5.36;34.10
61757;BME280;57225;61.460;24.060;2023-04-04T13:35:09;101161.22;;;4.80;32.17
61757;BME280;57225;61.460;24.060;2023-04-04T13:37:54;101158.09;;;4.81;34.17
61757;BME280;57225;61.460;24.060;2023-04-04T13:40:38;101164.59;;;4.44;32.65
61757;BME280;57225;61.460;24.060;2023-04-04T13:43:23;101165.94;;;4.38;34.69
61757;BME280;57225;61.460;24.060;2023-04-04T13:46:08;101168.97;;;3.95;34.51
61757;BME280;57225;61.460;24.060;2023-04-04T13:48:53;101167.19;;;4.20;34.75
61757;BME280;57225;61.460;24.060;2023-04-04T13:51:39;101164.31;;;4.16;35.19
61757;BME280;57225;61.460;24.060;2023-04-04T13:54:25;101167.53;;;4.18;34.79
61757;BME280;57225;61.460;24.060;2023-04-04T13:57:12;101169.38;;;4.05;33.85
61757;BME280;57225;61.460;24.060;2023-04-04T13:59:58;101164.84;;;4.30;34.57
61757;BME280;57225;61.460;24.060;2023-04-04T14:02:46;101161.50;;;4.45;34.24
61757;BME280;57225;61.460;24.060;2023-04-04T14:05:35;101161.91;;;4.35;34.85
61757;BME280;57225;61.460;24.060;2023-04-04T14:08:22;101168.78;;;4.29;33.05
61757;BME280;57225;61.460;24.060;2023-04-04T14:11:07;101162.06;;;3.80;34.07
61757;BME280;57225;61.460;24.060;2023-04-04T14:13:52;101156.19;;;3.52;32.18
61757;BME280;57225;61.460;24.060;2023-04-04T14:16:36;101162.94;;;3.72;34.24
61757;BME280;57225;61.460;24.060;2023-04-04T14:19:21;101168.50;;;3.55;34.57
61757;BME280;57225;61.460;24.060;2023-04-04T14:22:06;101154.03;;;3.67;35.01
61757;BME280;57225;61.460;24.060;2023-04-04T14:24:51;101154.69;;;3.93;35.22
61757;BME280;57225;61.460;24.060;2023-04-04T14:27:35;101152.00;;;3.84;34.84
61757;BME280;57225;61.460;24.060;2023-04-04T14:30:19;101140.91;;;3.63;33.56
61757;BME280;57225;61.460;24.060;2023-04-04T14:33:04;101148.75;;;3.44;34.24
61757;BME280;57225;61.460;24.060;2023-04-04T14:35:49;101145.38;;;3.39;32.89
61757;BME280;57225;61.460;24.060;2023-04-04T14:38:33;101147.25;;;3.55;36.40
61757;BME280;57225;61.460;24.060;2023-04-04T14:41:18;101141.94;;;3.50;35.80
61757;BME280;57225;61.460;24.060;2023-04-04T14:44:02;101150.94;;;3.68;35.05
61757;BME280;57225;61.460;24.060;2023-04-04T14:46:49;101140.59;;;3.65;35.14
61757;BME280;57225;61.460;24.060;2023-04-04T14:49:39;101137.63;;;3.70;34.79